Sensor Readout

Last 3h
CO₂ last 3h
Last 12h
CO₂ last 12h
Last 24h
CO₂ last 24h
Last 72h
CO₂ last 72h
Timestamp Device CO₂ (ppm) Temp (°C) RH (%)
2026-05-07 11:38:02 Pico-London-1 745 19.49 46.0
2026-05-07 11:36:37 Pico-London-1 748 19.45 46.1
2026-05-07 11:35:11 Pico-London-1 754 19.44 46.1
2026-05-07 11:33:45 Pico-London-1 750 19.46 46.1
2026-05-07 11:32:17 Pico-London-1 755 19.48 45.9
2026-05-07 11:30:54 Pico-London-1 763 19.59 45.8
2026-05-07 11:29:29 Pico-London-1 769 19.56 46.1
2026-05-07 11:28:04 Pico-London-1 758 19.49 46.1
2026-05-07 11:26:39 Pico-London-1 756 19.56 45.9
2026-05-07 11:25:15 Pico-London-1 757 19.57 45.9
2026-05-07 11:23:50 Pico-London-1 764 19.45 46.2
2026-05-07 11:22:26 Pico-London-1 749 19.44 46.2
2026-05-07 11:21:01 Pico-London-1 733 19.44 46.1
2026-05-07 11:19:37 Pico-London-1 733 19.51 45.9
2026-05-07 11:18:12 Pico-London-1 737 19.47 45.9
2026-05-07 11:16:46 Pico-London-1 735 19.45 45.9
2026-05-07 11:15:22 Pico-London-1 736 19.50 45.9
2026-05-07 11:13:58 Pico-London-1 751 19.53 45.9
2026-05-07 11:12:34 Pico-London-1 751 19.49 46.0
2026-05-07 11:11:09 Pico-London-1 749 19.42 46.1
2026-05-07 11:09:44 Pico-London-1 770 19.41 46.2
2026-05-07 11:08:19 Pico-London-1 774 19.42 46.3
2026-05-07 11:06:55 Pico-London-1 775 19.45 46.2
2026-05-07 11:05:30 Pico-London-1 779 19.43 46.2
2026-05-07 11:04:05 Pico-London-1 781 19.49 46.1
2026-05-07 11:02:39 Pico-London-1 781 19.52 46.1
2026-05-07 11:01:13 Pico-London-1 779 19.45 46.3
2026-05-07 10:59:49 Pico-London-1 756 19.41 46.3
2026-05-07 10:58:24 Pico-London-1 750 19.36 46.3
2026-05-07 10:56:59 Pico-London-1 742 19.44 46.0
2026-05-07 10:55:33 Pico-London-1 738 19.52 45.9
2026-05-07 10:54:08 Pico-London-1 740 19.52 46.0
2026-05-07 10:52:43 Pico-London-1 738 19.49 45.9
2026-05-07 10:51:18 Pico-London-1 740 19.51 45.9
2026-05-07 10:49:53 Pico-London-1 741 19.51 45.8
2026-05-07 10:48:28 Pico-London-1 744 19.42 46.1
2026-05-07 10:47:04 Pico-London-1 742 19.37 46.1
2026-05-07 10:45:39 Pico-London-1 745 19.41 46.1
2026-05-07 10:44:14 Pico-London-1 735 19.39 46.0
2026-05-07 10:42:50 Pico-London-1 731 19.47 45.9
2026-05-07 10:41:25 Pico-London-1 731 19.43 46.0
2026-05-07 10:40:00 Pico-London-1 732 19.46 45.9
2026-05-07 10:38:36 Pico-London-1 728 19.48 45.8
2026-05-07 10:37:11 Pico-London-1 725 19.46 45.8
2026-05-07 10:35:46 Pico-London-1 728 19.48 45.8
2026-05-07 10:34:21 Pico-London-1 726 19.47 45.9
2026-05-07 10:32:54 Pico-London-1 723 19.39 45.9
2026-05-07 10:31:27 Pico-London-1 723 19.42 45.9
2026-05-07 10:30:03 Pico-London-1 732 19.41 45.9
2026-05-07 10:28:39 Pico-London-1 730 19.42 45.9
2026-05-07 10:27:14 Pico-London-1 727 19.40 45.9
2026-05-07 10:25:50 Pico-London-1 743 19.39 46.0
2026-05-07 10:24:25 Pico-London-1 740 19.41 46.0
2026-05-07 10:23:00 Pico-London-1 739 19.44 45.9
2026-05-07 10:21:36 Pico-London-1 742 19.49 45.8
2026-05-07 10:20:11 Pico-London-1 745 19.45 45.9
2026-05-07 10:18:46 Pico-London-1 751 19.45 45.9
2026-05-07 10:17:22 Pico-London-1 766 19.41 46.0
2026-05-07 10:15:58 Pico-London-1 777 19.48 45.9
2026-05-07 10:14:34 Pico-London-1 780 19.50 45.8
2026-05-07 10:13:09 Pico-London-1 782 19.53 45.8
2026-05-07 10:11:44 Pico-London-1 779 19.53 45.8
2026-05-07 10:10:20 Pico-London-1 777 19.52 45.9
2026-05-07 10:08:56 Pico-London-1 775 19.54 45.8
2026-05-07 10:07:31 Pico-London-1 774 19.50 45.9
2026-05-07 10:06:06 Pico-London-1 767 19.53 46.0
2026-05-07 10:04:40 Pico-London-1 764 19.46 46.0
2026-05-07 10:03:14 Pico-London-1 759 19.40 46.1
2026-05-07 10:01:47 Pico-London-1 730 19.41 46.1
2026-05-07 10:00:23 Pico-London-1 713 19.40 46.1
2026-05-07 09:58:59 Pico-London-1 714 19.41 45.7
2026-05-07 09:57:34 Pico-London-1 712 19.44 45.7
2026-05-07 09:56:09 Pico-London-1 714 19.47 45.8
2026-05-07 09:54:44 Pico-London-1 714 19.39 45.9
2026-05-07 09:53:20 Pico-London-1 715 19.36 45.9
2026-05-07 09:51:55 Pico-London-1 716 19.42 45.8
2026-05-07 09:50:29 Pico-London-1 717 19.44 45.8
2026-05-07 09:49:05 Pico-London-1 718 19.49 45.7
2026-05-07 09:47:41 Pico-London-1 720 19.48 45.8
2026-05-07 09:46:16 Pico-London-1 722 19.49 45.8
2026-05-07 09:44:51 Pico-London-1 727 19.45 45.9
2026-05-07 09:43:27 Pico-London-1 727 19.40 46.0
2026-05-07 09:42:02 Pico-London-1 721 19.35 46.1
2026-05-07 09:40:38 Pico-London-1 721 19.38 46.1
2026-05-07 09:39:13 Pico-London-1 719 19.37 46.0
2026-05-07 09:37:48 Pico-London-1 721 19.35 46.0
2026-05-07 09:36:23 Pico-London-1 717 19.34 46.2
2026-05-07 09:34:58 Pico-London-1 714 19.36 46.1
2026-05-07 09:33:30 Pico-London-1 711 19.29 46.3
2026-05-07 09:32:03 Pico-London-1 705 19.09 46.6
2026-05-07 09:30:40 Pico-London-1 697 19.11 46.5
2026-05-07 09:29:16 Pico-London-1 689 19.16 46.5
2026-05-07 09:27:51 Pico-London-1 685 19.15 46.4
2026-05-07 09:26:26 Pico-London-1 669 19.22 46.3
2026-05-07 09:25:01 Pico-London-1 627 19.06 46.4
2026-05-07 09:23:36 Pico-London-1 627 19.13 46.0
2026-05-07 09:22:12 Pico-London-1 671 19.39 45.4
2026-05-07 09:20:47 Pico-London-1 663 19.40 45.5
2026-05-07 09:19:23 Pico-London-1 663 19.40 45.6
2026-05-07 09:17:58 Pico-London-1 662 19.37 45.5
2026-05-07 09:16:34 Pico-London-1 660 19.40 45.5
2026-05-07 09:15:09 Pico-London-1 668 19.46 45.3
2026-05-07 09:13:45 Pico-London-1 667 19.47 45.3
2026-05-07 09:12:20 Pico-London-1 669 19.44 45.3
2026-05-07 09:10:56 Pico-London-1 670 19.41 45.3
2026-05-07 09:09:31 Pico-London-1 675 19.45 45.3
2026-05-07 09:08:07 Pico-London-1 676 19.45 45.3
2026-05-07 09:06:42 Pico-London-1 676 19.47 45.2
2026-05-07 09:05:16 Pico-London-1 677 19.47 45.2
2026-05-07 09:03:50 Pico-London-1 679 19.46 45.3
2026-05-07 09:02:23 Pico-London-1 680 19.44 45.4
2026-05-07 09:01:00 Pico-London-1 684 19.40 45.5
2026-05-07 08:59:35 Pico-London-1 678 19.43 45.3
2026-05-07 08:58:10 Pico-London-1 677 19.44 45.3
2026-05-07 08:56:45 Pico-London-1 675 19.48 45.2
2026-05-07 08:55:21 Pico-London-1 676 19.50 45.2
2026-05-07 08:53:57 Pico-London-1 676 19.51 45.0
2026-05-07 08:52:32 Pico-London-1 673 19.52 45.0
2026-05-07 08:51:08 Pico-London-1 676 19.47 45.1
2026-05-07 08:49:43 Pico-London-1 677 19.55 44.9
2026-05-07 08:48:18 Pico-London-1 675 19.53 45.0
2026-05-07 08:46:54 Pico-London-1 672 19.48 45.1
2026-05-07 08:45:29 Pico-London-1 671 19.46 45.1
2026-05-07 08:44:04 Pico-London-1 673 19.46 45.1
2026-05-07 08:42:39 Pico-London-1 672 19.52 45.0
2026-05-07 08:41:15 Pico-London-1 680 19.46 45.1
2026-05-07 08:39:50 Pico-London-1 681 19.45 45.2
2026-05-07 08:38:25 Pico-London-1 677 19.43 45.2
2026-05-07 08:37:01 Pico-London-1 675 19.52 44.9
2026-05-07 08:35:37 Pico-London-1 674 19.52 44.8
2026-05-07 08:34:10 Pico-London-1 675 19.48 45.0
2026-05-07 08:32:44 Pico-London-1 677 19.48 45.0
2026-05-07 08:31:16 Pico-London-1 675 19.41 45.1
2026-05-07 08:29:53 Pico-London-1 663 19.42 45.1
2026-05-07 08:28:29 Pico-London-1 668 19.39 45.0
2026-05-07 08:27:04 Pico-London-1 670 19.37 45.0
2026-05-07 08:25:40 Pico-London-1 669 19.39 44.9
2026-05-07 08:24:15 Pico-London-1 668 19.39 44.9
2026-05-07 08:22:51 Pico-London-1 661 19.40 45.1
2026-05-07 08:21:26 Pico-London-1 644 19.42 44.8
2026-05-07 08:20:02 Pico-London-1 637 19.43 44.8
2026-05-07 08:18:38 Pico-London-1 634 19.43 44.9
2026-05-07 08:17:13 Pico-London-1 630 19.40 44.9
2026-05-07 08:15:47 Pico-London-1 627 19.37 44.9
2026-05-07 08:14:22 Pico-London-1 624 19.35 44.9
2026-05-07 08:12:57 Pico-London-1 619 19.33 45.0
2026-05-07 08:11:33 Pico-London-1 615 19.33 44.9
2026-05-07 08:10:09 Pico-London-1 613 19.29 45.0
2026-05-07 08:08:45 Pico-London-1 609 19.24 45.1
2026-05-07 08:07:20 Pico-London-1 604 19.24 45.1
2026-05-07 08:05:56 Pico-London-1 598 19.22 45.1
2026-05-07 08:04:31 Pico-London-1 594 19.19 45.0
2026-05-07 08:03:04 Pico-London-1 589 19.15 45.0
2026-05-07 08:01:37 Pico-London-1 582 19.13 45.0
2026-05-07 08:00:14 Pico-London-1 578 19.18 44.7
2026-05-07 07:58:49 Pico-London-1 569 19.16 44.6
2026-05-07 07:57:24 Pico-London-1 562 19.11 44.6
2026-05-07 07:55:59 Pico-London-1 554 19.09 44.5
2026-05-07 07:54:35 Pico-London-1 549 19.01 44.5
2026-05-07 07:53:10 Pico-London-1 543 18.93 44.6
2026-05-07 07:51:45 Pico-London-1 530 18.82 44.6
2026-05-07 07:50:20 Pico-London-1 519 18.59 44.7
2026-05-07 07:48:55 Pico-London-1 500 18.37 44.9
2026-05-07 07:47:30 Pico-London-1 481 17.97 44.9
2026-05-07 07:46:06 Pico-London-1 482 17.81 44.3
2026-05-07 07:44:41 Pico-London-1 517 18.14 44.0
2026-05-07 07:43:16 Pico-London-1 545 18.97 44.4
2026-05-07 07:41:51 Pico-London-1 557 19.24 45.0
2026-05-07 07:40:27 Pico-London-1 557 19.23 44.9
2026-05-07 07:39:03 Pico-London-1 557 19.22 45.1
2026-05-07 07:37:38 Pico-London-1 557 19.23 45.0
2026-05-07 07:36:13 Pico-London-1 556 19.24 44.9
2026-05-07 07:34:47 Pico-London-1 556 19.24 45.0
2026-05-07 07:33:21 Pico-London-1 556 19.25 44.9
2026-05-07 07:31:53 Pico-London-1 556 19.24 44.9
2026-05-07 07:30:30 Pico-London-1 557 19.28 44.9
2026-05-07 07:29:05 Pico-London-1 556 19.28 44.9
2026-05-07 07:27:40 Pico-London-1 557 19.25 44.9
2026-05-07 07:26:16 Pico-London-1 558 19.25 44.9
2026-05-07 07:24:52 Pico-London-1 555 19.26 45.0
2026-05-07 07:23:27 Pico-London-1 553 19.29 44.9
2026-05-07 07:22:03 Pico-London-1 555 19.29 44.8
2026-05-07 07:20:39 Pico-London-1 556 19.27 44.9
2026-05-07 07:19:14 Pico-London-1 559 19.27 45.0
2026-05-07 07:17:49 Pico-London-1 558 19.28 44.9
2026-05-07 07:16:25 Pico-London-1 557 19.30 44.9
2026-05-07 07:15:01 Pico-London-1 557 19.29 45.0
2026-05-07 07:13:36 Pico-London-1 557 19.28 44.9
2026-05-07 07:12:12 Pico-London-1 556 19.35 44.7
2026-05-07 07:10:47 Pico-London-1 557 19.34 44.8
2026-05-07 07:09:23 Pico-London-1 560 19.35 44.8
2026-05-07 07:07:58 Pico-London-1 559 19.35 44.7
2026-05-07 07:06:34 Pico-London-1 561 19.36 44.7
2026-05-07 07:05:08 Pico-London-1 561 19.34 44.7
2026-05-07 07:03:42 Pico-London-1 564 19.36 44.8
2026-05-07 07:02:15 Pico-London-1 564 19.33 44.8
2026-05-07 07:00:52 Pico-London-1 566 19.35 44.8
2026-05-07 06:59:28 Pico-London-1 569 19.37 44.8
2026-05-07 06:58:03 Pico-London-1 571 19.35 44.9
2026-05-07 06:56:38 Pico-London-1 564 19.37 44.9
2026-05-07 06:55:14 Pico-London-1 565 19.35 44.9
2026-05-07 06:53:48 Pico-London-1 565 19.35 44.8
2026-05-07 06:52:24 Pico-London-1 568 19.33 44.8
2026-05-07 06:50:59 Pico-London-1 567 19.35 44.9
2026-05-07 06:49:34 Pico-London-1 566 19.34 44.8
2026-05-07 06:48:09 Pico-London-1 565 19.33 44.9
2026-05-07 06:46:44 Pico-London-1 565 19.32 44.8
2026-05-07 06:45:20 Pico-London-1 564 19.37 44.8
2026-05-07 06:43:54 Pico-London-1 564 19.37 44.7
2026-05-07 06:42:29 Pico-London-1 562 19.42 44.8
2026-05-07 06:41:04 Pico-London-1 562 19.39 44.7
2026-05-07 06:39:40 Pico-London-1 563 19.36 44.8
2026-05-07 06:38:14 Pico-London-1 566 19.37 44.9
2026-05-07 06:36:50 Pico-London-1 565 19.42 44.8
2026-05-07 06:35:26 Pico-London-1 566 19.39 44.8
2026-05-07 06:34:00 Pico-London-1 565 19.38 44.8
2026-05-07 06:32:33 Pico-London-1 565 19.39 44.7
2026-05-07 06:31:06 Pico-London-1 565 19.40 44.7
2026-05-07 06:29:43 Pico-London-1 566 19.40 44.7
2026-05-07 06:28:19 Pico-London-1 566 19.41 44.8
2026-05-07 06:26:54 Pico-London-1 565 19.44 44.7
2026-05-07 06:25:30 Pico-London-1 565 19.43 44.7
2026-05-07 06:24:05 Pico-London-1 567 19.41 44.8
2026-05-07 06:22:40 Pico-London-1 565 19.40 44.8
2026-05-07 06:21:16 Pico-London-1 564 19.44 44.7
2026-05-07 06:19:51 Pico-London-1 565 19.41 44.7
2026-05-07 06:18:27 Pico-London-1 564 19.41 44.8
2026-05-07 06:17:02 Pico-London-1 565 19.44 44.7
2026-05-07 06:15:37 Pico-London-1 567 19.45 44.7
2026-05-07 06:14:12 Pico-London-1 567 19.45 44.7
2026-05-07 06:12:47 Pico-London-1 566 19.45 44.8
2026-05-07 06:11:23 Pico-London-1 563 19.46 44.7
2026-05-07 06:09:59 Pico-London-1 563 19.45 44.8
2026-05-07 06:08:34 Pico-London-1 563 19.39 44.8
2026-05-07 06:07:09 Pico-London-1 571 19.40 44.8
2026-05-07 06:05:45 Pico-London-1 569 19.44 44.8
2026-05-07 06:04:19 Pico-London-1 566 19.46 44.8
2026-05-07 06:02:53 Pico-London-1 566 19.45 44.7
2026-05-07 06:01:26 Pico-London-1 565 19.47 44.7
2026-05-07 06:00:02 Pico-London-1 565 19.45 44.7
2026-05-07 05:58:38 Pico-London-1 565 19.49 44.8
2026-05-07 05:57:13 Pico-London-1 566 19.50 44.7
2026-05-07 05:55:48 Pico-London-1 567 19.43 44.9
2026-05-07 05:54:23 Pico-London-1 568 19.47 44.8
2026-05-07 05:52:58 Pico-London-1 567 19.48 44.8
2026-05-07 05:51:33 Pico-London-1 569 19.49 44.7
2026-05-07 05:50:07 Pico-London-1 569 19.50 44.7
2026-05-07 05:48:43 Pico-London-1 573 19.47 44.8
2026-05-07 05:47:18 Pico-London-1 572 19.49 44.8
2026-05-07 05:45:53 Pico-London-1 569 19.52 44.7
2026-05-07 05:44:29 Pico-London-1 568 19.52 44.7
2026-05-07 05:43:04 Pico-London-1 569 19.50 44.8
2026-05-07 05:41:39 Pico-London-1 566 19.47 44.8
2026-05-07 05:40:14 Pico-London-1 563 19.49 44.7
2026-05-07 05:38:49 Pico-London-1 566 19.49 44.7
2026-05-07 05:37:25 Pico-London-1 567 19.51 44.7
2026-05-07 05:36:00 Pico-London-1 568 19.46 44.9
2026-05-07 05:34:33 Pico-London-1 568 19.46 44.7
2026-05-07 05:33:08 Pico-London-1 569 19.51 44.8
2026-05-07 05:31:41 Pico-London-1 570 19.53 44.8
2026-05-07 05:30:17 Pico-London-1 567 19.55 44.8
2026-05-07 05:28:53 Pico-London-1 567 19.53 44.7
2026-05-07 05:27:29 Pico-London-1 567 19.51 44.8
2026-05-07 05:26:04 Pico-London-1 567 19.49 44.7
2026-05-07 05:24:39 Pico-London-1 569 19.51 44.8
2026-05-07 05:23:15 Pico-London-1 573 19.54 44.7
2026-05-07 05:21:50 Pico-London-1 571 19.54 44.7
2026-05-07 05:20:26 Pico-London-1 571 19.56 44.7
2026-05-07 05:19:01 Pico-London-1 569 19.57 44.7
2026-05-07 05:17:37 Pico-London-1 570 19.57 44.7
2026-05-07 05:16:12 Pico-London-1 571 19.57 44.7
2026-05-07 05:14:47 Pico-London-1 575 19.56 44.7
2026-05-07 05:13:23 Pico-London-1 574 19.59 44.7
2026-05-07 05:11:58 Pico-London-1 575 19.59 44.8
2026-05-07 05:10:34 Pico-London-1 574 19.59 44.7
2026-05-07 05:09:09 Pico-London-1 578 19.53 44.8
2026-05-07 05:07:45 Pico-London-1 577 19.53 44.8
2026-05-07 05:06:20 Pico-London-1 575 19.55 44.8
2026-05-07 05:04:54 Pico-London-1 572 19.55 44.8
2026-05-07 05:03:28 Pico-London-1 571 19.52 44.9
2026-05-07 05:02:01 Pico-London-1 569 19.57 44.6
2026-05-07 05:00:38 Pico-London-1 569 19.58 44.7
2026-05-07 04:59:13 Pico-London-1 570 19.60 44.6
2026-05-07 04:57:48 Pico-London-1 571 19.60 44.7
2026-05-07 04:56:24 Pico-London-1 573 19.61 44.6
2026-05-07 04:54:59 Pico-London-1 571 19.63 44.6
2026-05-07 04:53:33 Pico-London-1 572 19.60 44.6
2026-05-07 04:52:09 Pico-London-1 571 19.60 44.6
2026-05-07 04:50:43 Pico-London-1 572 19.61 44.6
2026-05-07 04:49:19 Pico-London-1 571 19.60 44.7
2026-05-07 04:47:54 Pico-London-1 571 19.63 44.7
2026-05-07 04:46:29 Pico-London-1 568 19.64 44.6
2026-05-07 04:45:05 Pico-London-1 566 19.64 44.6
2026-05-07 04:43:40 Pico-London-1 563 19.64 44.6
2026-05-07 04:42:15 Pico-London-1 565 19.63 44.5
2026-05-07 04:40:50 Pico-London-1 567 19.63 44.8
2026-05-07 04:39:25 Pico-London-1 565 19.62 44.6
2026-05-07 04:38:01 Pico-London-1 569 19.61 44.7
2026-05-07 04:36:35 Pico-London-1 569 19.66 44.6
2026-05-07 04:35:09 Pico-London-1 567 19.63 44.7
2026-05-07 04:33:42 Pico-London-1 566 19.63 44.7
2026-05-07 04:32:16 Pico-London-1 568 19.63 44.7
2026-05-07 04:30:52 Pico-London-1 569 19.66 44.5
2026-05-07 04:29:28 Pico-London-1 572 19.68 44.6
2026-05-07 04:28:04 Pico-London-1 573 19.69 44.6
2026-05-07 04:26:39 Pico-London-1 572 19.66 44.7
2026-05-07 04:25:14 Pico-London-1 569 19.68 44.6
2026-05-07 04:23:50 Pico-London-1 573 19.66 44.6
2026-05-07 04:22:26 Pico-London-1 574 19.72 44.6
2026-05-07 04:21:01 Pico-London-1 570 19.68 44.7
2026-05-07 04:19:36 Pico-London-1 569 19.70 44.6
2026-05-07 04:18:12 Pico-London-1 569 19.68 44.6
2026-05-07 04:16:47 Pico-London-1 568 19.72 44.6
2026-05-07 04:15:22 Pico-London-1 568 19.71 44.5
2026-05-07 04:13:57 Pico-London-1 568 19.69 44.7
2026-05-07 04:12:33 Pico-London-1 568 19.70 44.6
2026-05-07 04:11:08 Pico-London-1 569 19.70 44.6
2026-05-07 04:09:43 Pico-London-1 566 19.71 44.6
2026-05-07 04:08:19 Pico-London-1 564 19.68 44.6
2026-05-07 04:06:55 Pico-London-1 564 19.68 44.7
2026-05-07 04:05:30 Pico-London-1 564 19.68 44.6
2026-05-07 04:04:05 Pico-London-1 565 19.73 44.5
2026-05-07 04:02:39 Pico-London-1 564 19.74 44.5
2026-05-07 04:01:12 Pico-London-1 565 19.71 44.6
2026-05-07 03:59:49 Pico-London-1 564 19.73 44.7
2026-05-07 03:58:25 Pico-London-1 561 19.68 44.7
2026-05-07 03:56:59 Pico-London-1 560 19.69 44.7
2026-05-07 03:55:35 Pico-London-1 559 19.71 44.6
2026-05-07 03:54:10 Pico-London-1 562 19.78 44.5
2026-05-07 03:52:44 Pico-London-1 562 19.76 44.6
2026-05-07 03:51:20 Pico-London-1 562 19.76 44.5
2026-05-07 03:49:55 Pico-London-1 563 19.76 44.5
2026-05-07 03:48:31 Pico-London-1 563 19.73 44.6
2026-05-07 03:47:06 Pico-London-1 563 19.74 44.6
2026-05-07 03:45:42 Pico-London-1 562 19.76 44.5
2026-05-07 03:44:17 Pico-London-1 561 19.82 44.5
2026-05-07 03:42:53 Pico-London-1 560 19.76 44.6
2026-05-07 03:41:28 Pico-London-1 560 19.76 44.6
2026-05-07 03:40:04 Pico-London-1 559 19.81 44.5
2026-05-07 03:38:39 Pico-London-1 562 19.79 44.5
2026-05-07 03:37:14 Pico-London-1 561 19.77 44.5
2026-05-07 03:35:50 Pico-London-1 561 19.76 44.6
2026-05-07 03:34:25 Pico-London-1 561 19.79 44.5
2026-05-07 03:32:59 Pico-London-1 562 19.76 44.6
2026-05-07 03:31:31 Pico-London-1 563 19.83 44.5
2026-05-07 03:30:08 Pico-London-1 565 19.88 44.4
2026-05-07 03:28:43 Pico-London-1 567 19.85 44.5
2026-05-07 03:27:18 Pico-London-1 564 19.84 44.5
2026-05-07 03:25:52 Pico-London-1 562 19.84 44.5
2026-05-07 03:24:28 Pico-London-1 564 19.88 44.5
2026-05-07 03:23:03 Pico-London-1 562 19.82 44.5
2026-05-07 03:21:39 Pico-London-1 561 19.86 44.5
2026-05-07 03:20:15 Pico-London-1 561 19.84 44.5
2026-05-07 03:18:50 Pico-London-1 563 19.89 44.5
2026-05-07 03:17:26 Pico-London-1 564 19.88 44.5
2026-05-07 03:16:02 Pico-London-1 565 19.87 44.5
2026-05-07 03:14:37 Pico-London-1 562 19.94 44.5
2026-05-07 03:13:13 Pico-London-1 563 19.91 44.5
2026-05-07 03:11:48 Pico-London-1 566 19.94 44.5
2026-05-07 03:10:24 Pico-London-1 566 19.97 44.5
2026-05-07 03:08:59 Pico-London-1 567 19.97 44.5
2026-05-07 03:07:35 Pico-London-1 568 20.01 44.4
2026-05-07 03:06:11 Pico-London-1 569 20.00 44.5
2026-05-07 03:04:45 Pico-London-1 570 20.00 44.5
2026-05-07 03:03:19 Pico-London-1 569 19.96 44.5
2026-05-07 03:01:52 Pico-London-1 569 19.99 44.5
2026-05-07 03:00:29 Pico-London-1 568 20.03 44.5
2026-05-07 02:59:04 Pico-London-1 570 20.02 44.4
2026-05-07 02:57:40 Pico-London-1 569 19.99 44.5
2026-05-07 02:56:15 Pico-London-1 572 20.00 44.6
2026-05-07 02:54:51 Pico-London-1 574 20.01 44.6
2026-05-07 02:53:27 Pico-London-1 572 20.08 44.4
2026-05-07 02:52:02 Pico-London-1 570 20.06 44.5
2026-05-07 02:50:37 Pico-London-1 571 20.07 44.4
2026-05-07 02:49:13 Pico-London-1 570 20.05 44.5
2026-05-07 02:47:48 Pico-London-1 574 19.99 44.7
2026-05-07 02:46:24 Pico-London-1 576 19.98 44.7
2026-05-07 02:44:59 Pico-London-1 575 20.00 44.8
2026-05-07 02:43:35 Pico-London-1 576 20.00 44.8
2026-05-07 02:42:10 Pico-London-1 579 19.92 44.9
2026-05-07 02:40:45 Pico-London-1 579 19.96 44.8
2026-05-07 02:39:21 Pico-London-1 580 20.03 44.8
2026-05-07 02:37:57 Pico-London-1 583 19.94 44.9
2026-05-07 02:36:32 Pico-London-1 583 19.90 45.0
2026-05-07 02:35:07 Pico-London-1 582 19.97 44.9
2026-05-07 02:33:41 Pico-London-1 583 19.97 44.8
2026-05-07 02:32:14 Pico-London-1 582 19.98 44.9
2026-05-07 02:30:50 Pico-London-1 583 19.94 45.0
2026-05-07 02:29:26 Pico-London-1 588 19.90 45.1
2026-05-07 02:28:02 Pico-London-1 587 20.07 44.8
2026-05-07 02:26:38 Pico-London-1 585 20.00 44.9
2026-05-07 02:25:13 Pico-London-1 589 20.04 44.9
2026-05-07 02:23:48 Pico-London-1 590 19.98 45.0
2026-05-07 02:22:23 Pico-London-1 594 19.89 45.3
2026-05-07 02:20:59 Pico-London-1 592 19.84 45.3
2026-05-07 02:19:34 Pico-London-1 592 19.83 45.4
2026-05-07 02:18:10 Pico-London-1 594 19.77 45.5
2026-05-07 02:16:45 Pico-London-1 591 19.79 45.4
2026-05-07 02:15:21 Pico-London-1 593 19.89 45.3
2026-05-07 02:13:57 Pico-London-1 595 19.89 45.3
2026-05-07 02:12:32 Pico-London-1 597 19.83 45.4
2026-05-07 02:11:07 Pico-London-1 597 19.83 45.4
2026-05-07 02:09:42 Pico-London-1 595 19.94 45.3
2026-05-07 02:08:11 Pico-London-1 598 19.87 45.4
2026-05-07 02:06:47 Pico-London-1 596 19.94 45.2
2026-05-07 02:05:20 Pico-London-1 596 19.92 45.3
2026-05-07 02:03:54 Pico-London-1 596 19.92 45.4
2026-05-07 02:02:27 Pico-London-1 596 19.99 45.2
2026-05-07 02:01:03 Pico-London-1 595 19.97 45.3
2026-05-07 01:59:39 Pico-London-1 598 19.86 45.5
2026-05-07 01:58:15 Pico-London-1 598 19.88 45.4
2026-05-07 01:56:50 Pico-London-1 599 19.80 45.6
2026-05-07 01:55:26 Pico-London-1 599 19.90 45.4
2026-05-07 01:54:00 Pico-London-1 601 19.96 45.4
2026-05-07 01:52:35 Pico-London-1 600 19.97 45.4
2026-05-07 01:51:11 Pico-London-1 603 19.78 45.7
2026-05-07 01:49:47 Pico-London-1 602 19.77 45.8
2026-05-07 01:48:23 Pico-London-1 603 19.83 45.6
2026-05-07 01:46:58 Pico-London-1 604 19.94 45.5
2026-05-07 01:45:09 Pico-London-1 605 19.95 45.5
2026-05-07 01:41:45 Pico-London-1 605 19.81 45.7
2026-05-07 01:40:21 Pico-London-1 603 19.94 45.5
2026-05-07 01:38:55 Pico-London-1 607 19.92 45.5
2026-05-07 01:37:31 Pico-London-1 606 19.95 45.5
2026-05-07 01:36:05 Pico-London-1 603 20.02 45.4
2026-05-07 01:34:39 Pico-London-1 603 19.96 45.5
2026-05-07 01:33:14 Pico-London-1 605 19.93 45.5
2026-05-07 01:31:46 Pico-London-1 605 19.98 45.5
2026-05-07 01:30:23 Pico-London-1 608 20.03 45.5
2026-05-07 01:28:58 Pico-London-1 608 19.98 45.5
2026-05-07 01:27:34 Pico-London-1 608 19.99 45.5
2026-05-07 01:26:09 Pico-London-1 606 20.06 45.4
2026-05-07 01:24:44 Pico-London-1 605 20.11 45.4
2026-05-07 01:23:20 Pico-London-1 606 20.07 45.4
2026-05-07 01:21:55 Pico-London-1 609 20.10 45.3
2026-05-07 01:20:30 Pico-London-1 610 20.13 45.3
2026-05-07 01:19:06 Pico-London-1 611 20.21 45.2
2026-05-07 01:17:42 Pico-London-1 615 20.21 45.2
2026-05-07 01:16:17 Pico-London-1 612 20.18 45.3
2026-05-07 01:14:53 Pico-London-1 612 20.21 45.2
2026-05-07 01:13:29 Pico-London-1 613 20.20 45.3
2026-05-07 01:12:04 Pico-London-1 613 20.17 45.4
2026-05-07 01:10:40 Pico-London-1 612 20.16 45.3
2026-05-07 01:09:16 Pico-London-1 611 20.19 45.4
2026-05-07 01:07:52 Pico-London-1 613 20.19 45.3
2026-05-07 01:06:27 Pico-London-1 613 20.28 45.2
2026-05-07 01:05:01 Pico-London-1 614 20.28 45.3
2026-05-07 01:03:35 Pico-London-1 615 20.28 45.3
2026-05-07 01:02:08 Pico-London-1 617 20.23 45.3
2026-05-07 01:00:45 Pico-London-1 619 20.21 45.3
2026-05-07 00:59:21 Pico-London-1 621 20.32 45.3
2026-05-07 00:57:56 Pico-London-1 618 20.24 45.3
2026-05-07 00:56:32 Pico-London-1 619 20.29 45.2
2026-05-07 00:55:07 Pico-London-1 621 20.32 45.2
2026-05-07 00:53:43 Pico-London-1 624 20.31 45.2
2026-05-07 00:52:18 Pico-London-1 625 20.35 45.1
2026-05-07 00:50:55 Pico-London-1 624 20.37 45.2
2026-05-07 00:49:30 Pico-London-1 629 20.35 45.2
2026-05-07 00:48:06 Pico-London-1 629 20.35 45.1
2026-05-07 00:46:41 Pico-London-1 630 20.41 45.2
2026-05-07 00:45:16 Pico-London-1 629 20.38 45.2
2026-05-07 00:43:52 Pico-London-1 632 20.40 45.1
2026-05-07 00:42:28 Pico-London-1 633 20.45 45.1
2026-05-07 00:41:03 Pico-London-1 633 20.49 45.1
2026-05-07 00:39:39 Pico-London-1 635 20.50 45.1
2026-05-07 00:38:15 Pico-London-1 641 20.46 45.1
2026-05-07 00:36:50 Pico-London-1 638 20.48 45.1
2026-05-07 00:35:26 Pico-London-1 643 20.53 45.1
2026-05-07 00:34:00 Pico-London-1 646 20.52 45.1
2026-05-07 00:32:35 Pico-London-1 647 20.55 45.1
2026-05-07 00:31:07 Pico-London-1 648 20.58 45.0
2026-05-07 00:29:43 Pico-London-1 650 20.54 45.1
2026-05-07 00:28:18 Pico-London-1 652 20.52 45.2
2026-05-07 00:26:53 Pico-London-1 650 20.55 45.1
2026-05-07 00:25:28 Pico-London-1 653 20.55 45.2
2026-05-07 00:24:03 Pico-London-1 659 20.53 45.2
2026-05-07 00:22:39 Pico-London-1 662 20.53 45.2
2026-05-07 00:21:14 Pico-London-1 665 20.56 45.2
2026-05-07 00:19:49 Pico-London-1 668 20.59 45.1
2026-05-07 00:18:25 Pico-London-1 672 20.56 45.2
2026-05-07 00:17:01 Pico-London-1 672 20.63 45.1
2026-05-07 00:15:37 Pico-London-1 672 20.62 45.2
2026-05-07 00:14:13 Pico-London-1 676 20.62 45.2
2026-05-07 00:12:48 Pico-London-1 683 20.57 45.3
2026-05-07 00:11:24 Pico-London-1 687 20.66 45.2
2026-05-07 00:09:59 Pico-London-1 696 20.69 45.2
2026-05-07 00:08:34 Pico-London-1 699 20.63 45.3
2026-05-07 00:07:08 Pico-London-1 699 20.54 45.5
2026-05-07 00:05:44 Pico-London-1 689 20.37 45.6
2026-05-07 00:04:18 Pico-London-1 686 20.63 45.3
2026-05-07 00:02:51 Pico-London-1 688 20.65 45.2
2026-05-07 00:01:24 Pico-London-1 690 20.63 45.2
2026-05-07 00:00:01 Pico-London-1 692 20.63 45.2
2026-05-06 23:58:37 Pico-London-1 693 20.64 45.3
2026-05-06 23:57:12 Pico-London-1 693 20.67 45.3
2026-05-06 23:55:48 Pico-London-1 693 20.70 45.2
2026-05-06 23:54:23 Pico-London-1 689 20.68 45.3
2026-05-06 23:52:58 Pico-London-1 689 20.55 45.5
2026-05-06 23:51:34 Pico-London-1 691 20.59 45.5
2026-05-06 23:50:09 Pico-London-1 693 20.60 45.4